Terminal Aerodrome Forecast
Issued by NWS

Home | Current Version | Previous Version | Text Only | Print | Product List | Glossary On
Versions: 1 2 3 4 5 6 7 8 9 10 11 12 13 14 15
000
FTUS42 KMLB 190524
TAFISM
TAF
KISM 190524Z 1906/2006 VRB02KT P6SM SKC
     FM191600 24010KT P6SM VCSH BKN050
     FM191800 28010KT P6SM VCSH BKN045
     FM192100 32010KT P6SM SCT025 BKN040
     FM200200 34007KT P6SM SKC=

USA.gov is the U.S. government's official web portal to all federal, state and local government web resources and services.